sensor_id;sensor_type;location;lat;lon;timestamp;P1;durP1;ratioP1;P2;durP2;ratioP2
1747;SDS011;871;47.034;15.394;2022-10-16T00:00:34;133.37;;;45.90;;
1747;SDS011;871;47.034;15.394;2022-10-16T00:03:00;130.43;;;42.43;;
1747;SDS011;871;47.034;15.394;2022-10-16T00:05:27;121.30;;;42.53;;
1747;SDS011;871;47.034;15.394;2022-10-16T00:07:53;110.67;;;38.90;;
1747;SDS011;871;47.034;15.394;2022-10-16T00:10:19;135.40;;;42.80;;
1747;SDS011;871;47.034;15.394;2022-10-16T00:12:45;130.53;;;44.23;;
1747;SDS011;871;47.034;15.394;2022-10-16T00:15:11;133.67;;;42.63;;
1747;SDS011;871;47.034;15.394;2022-10-16T00:17:37;118.60;;;41.33;;
1747;SDS011;871;47.034;15.394;2022-10-16T00:20:03;125.97;;;43.10;;
1747;SDS011;871;47.034;15.394;2022-10-16T00:22:29;117.43;;;42.50;;
1747;SDS011;871;47.034;15.394;2022-10-16T00:24:55;118.73;;;40.90;;
1747;SDS011;871;47.034;15.394;2022-10-16T00:27:22;136.17;;;45.77;;
1747;SDS011;871;47.034;15.394;2022-10-16T00:29:51;124.03;;;42.53;;
1747;SDS011;871;47.034;15.394;2022-10-16T00:32:18;114.83;;;41.97;;
1747;SDS011;871;47.034;15.394;2022-10-16T00:34:44;130.20;;;46.70;;
1747;SDS011;871;47.034;15.394;2022-10-16T00:37:10;132.53;;;45.07;;
1747;SDS011;871;47.034;15.394;2022-10-16T00:39:36;147.03;;;48.77;;
1747;SDS011;871;47.034;15.394;2022-10-16T00:42:03;134.43;;;49.77;;
1747;SDS011;871;47.034;15.394;2022-10-16T00:44:43;135.93;;;46.93;;
1747;SDS011;871;47.034;15.394;2022-10-16T00:47:11;131.70;;;45.77;;
1747;SDS011;871;47.034;15.394;2022-10-16T00:49:38;132.83;;;44.67;;
1747;SDS011;871;47.034;15.394;2022-10-16T00:52:04;126.03;;;46.03;;
1747;SDS011;871;47.034;15.394;2022-10-16T00:54:31;130.37;;;45.53;;
1747;SDS011;871;47.034;15.394;2022-10-16T00:56:59;114.93;;;41.77;;
1747;SDS011;871;47.034;15.394;2022-10-16T00:59:29;124.23;;;43.67;;
1747;SDS011;871;47.034;15.394;2022-10-16T01:01:56;132.10;;;44.90;;
1747;SDS011;871;47.034;15.394;2022-10-16T01:04:23;115.13;;;40.03;;
1747;SDS011;871;47.034;15.394;2022-10-16T01:09:23;135.93;;;43.37;;
1747;SDS011;871;47.034;15.394;2022-10-16T01:17:02;122.83;;;42.80;;
1747;SDS011;871;47.034;15.394;2022-10-16T01:22:03;129.67;;;43.70;;
1747;SDS011;871;47.034;15.394;2022-10-16T01:24:37;104.77;;;38.73;;
1747;SDS011;871;47.034;15.394;2022-10-16T01:32:10;115.83;;;41.57;;
1747;SDS011;871;47.034;15.394;2022-10-16T01:34:38;121.73;;;43.63;;
1747;SDS011;871;47.034;15.394;2022-10-16T01:37:07;117.23;;;41.30;;
1747;SDS011;871;47.034;15.394;2022-10-16T01:39:35;117.97;;;40.67;;
1747;SDS011;871;47.034;15.394;2022-10-16T01:42:05;111.57;;;38.50;;
1747;SDS011;871;47.034;15.394;2022-10-16T01:44:33;121.67;;;42.00;;
1747;SDS011;871;47.034;15.394;2022-10-16T01:47:01;123.23;;;44.13;;
1747;SDS011;871;47.034;15.394;2022-10-16T01:49:28;126.63;;;44.77;;
1747;SDS011;871;47.034;15.394;2022-10-16T01:51:56;131.13;;;47.10;;
1747;SDS011;871;47.034;15.394;2022-10-16T01:54:23;126.57;;;45.80;;
1747;SDS011;871;47.034;15.394;2022-10-16T01:56:51;134.30;;;41.63;;
1747;SDS011;871;47.034;15.394;2022-10-16T01:59:18;128.57;;;45.73;;
1747;SDS011;871;47.034;15.394;2022-10-16T02:01:47;124.33;;;43.73;;
1747;SDS011;871;47.034;15.394;2022-10-16T02:04:15;115.80;;;40.30;;
1747;SDS011;871;47.034;15.394;2022-10-16T02:06:43;136.13;;;42.97;;
1747;SDS011;871;47.034;15.394;2022-10-16T02:09:09;130.83;;;45.03;;
1747;SDS011;871;47.034;15.394;2022-10-16T02:11:35;125.77;;;43.10;;
1747;SDS011;871;47.034;15.394;2022-10-16T02:14:02;129.00;;;43.17;;
1747;SDS011;871;47.034;15.394;2022-10-16T02:16:33;130.27;;;43.50;;
1747;SDS011;871;47.034;15.394;2022-10-16T02:19:00;123.57;;;45.57;;
1747;SDS011;871;47.034;15.394;2022-10-16T02:21:28;119.00;;;41.27;;
1747;SDS011;871;47.034;15.394;2022-10-16T02:24:14;130.43;;;41.60;;
1747;SDS011;871;47.034;15.394;2022-10-16T02:29:12;121.30;;;41.47;;
1747;SDS011;871;47.034;15.394;2022-10-16T02:31:41;108.13;;;40.43;;
1747;SDS011;871;47.034;15.394;2022-10-16T02:34:07;111.27;;;40.47;;
1747;SDS011;871;47.034;15.394;2022-10-16T02:36:36;121.17;;;43.20;;
1747;SDS011;871;47.034;15.394;2022-10-16T02:39:02;116.57;;;40.83;;
1747;SDS011;871;47.034;15.394;2022-10-16T02:41:30;113.23;;;43.30;;
1747;SDS011;871;47.034;15.394;2022-10-16T02:43:56;123.57;;;46.20;;
1747;SDS011;871;47.034;15.394;2022-10-16T02:46:22;118.57;;;41.20;;
1747;SDS011;871;47.034;15.394;2022-10-16T02:48:48;115.70;;;42.77;;
1747;SDS011;871;47.034;15.394;2022-10-16T02:51:14;124.60;;;44.57;;
1747;SDS011;871;47.034;15.394;2022-10-16T02:53:40;130.60;;;44.07;;
1747;SDS011;871;47.034;15.394;2022-10-16T02:56:06;122.77;;;43.83;;
1747;SDS011;871;47.034;15.394;2022-10-16T02:58:32;137.93;;;46.23;;
1747;SDS011;871;47.034;15.394;2022-10-16T03:00:58;153.53;;;49.30;;
1747;SDS011;871;47.034;15.394;2022-10-16T03:03:24;175.37;;;48.70;;
1747;SDS011;871;47.034;15.394;2022-10-16T03:05:50;268.57;;;55.80;;
1747;SDS011;871;47.034;15.394;2022-10-16T03:08:16;230.73;;;52.67;;
1747;SDS011;871;47.034;15.394;2022-10-16T03:10:48;179.10;;;49.60;;
1747;SDS011;871;47.034;15.394;2022-10-16T03:13:14;155.00;;;49.53;;
1747;SDS011;871;47.034;15.394;2022-10-16T03:15:40;177.20;;;48.77;;
1747;SDS011;871;47.034;15.394;2022-10-16T03:18:06;232.07;;;51.43;;
1747;SDS011;871;47.034;15.394;2022-10-16T03:20:32;151.20;;;50.07;;
1747;SDS011;871;47.034;15.394;2022-10-16T03:22:58;160.00;;;50.63;;
1747;SDS011;871;47.034;15.394;2022-10-16T03:25:25;144.07;;;48.63;;
1747;SDS011;871;47.034;15.394;2022-10-16T03:27:51;183.97;;;50.97;;
1747;SDS011;871;47.034;15.394;2022-10-16T03:30:17;159.83;;;50.27;;
1747;SDS011;871;47.034;15.394;2022-10-16T03:32:43;154.80;;;48.80;;
1747;SDS011;871;47.034;15.394;2022-10-16T03:35:10;138.20;;;47.40;;
1747;SDS011;871;47.034;15.394;2022-10-16T03:37:36;149.53;;;51.53;;
1747;SDS011;871;47.034;15.394;2022-10-16T03:40:02;149.23;;;48.80;;
1747;SDS011;871;47.034;15.394;2022-10-16T03:42:28;146.53;;;50.33;;
1747;SDS011;871;47.034;15.394;2022-10-16T03:44:54;155.97;;;47.30;;
1747;SDS011;871;47.034;15.394;2022-10-16T03:47:21;147.20;;;50.60;;
1747;SDS011;871;47.034;15.394;2022-10-16T03:49:48;169.53;;;47.50;;
1747;SDS011;871;47.034;15.394;2022-10-16T03:52:15;157.83;;;49.97;;
1747;SDS011;871;47.034;15.394;2022-10-16T03:54:41;153.70;;;49.70;;
1747;SDS011;871;47.034;15.394;2022-10-16T03:57:07;266.93;;;57.50;;
1747;SDS011;871;47.034;15.394;2022-10-16T03:59:33;170.70;;;53.00;;
1747;SDS011;871;47.034;15.394;2022-10-16T04:01:59;158.27;;;49.13;;
1747;SDS011;871;47.034;15.394;2022-10-16T04:04:25;184.97;;;52.47;;
1747;SDS011;871;47.034;15.394;2022-10-16T04:06:51;162.10;;;47.73;;
1747;SDS011;871;47.034;15.394;2022-10-16T04:09:17;183.23;;;49.00;;
1747;SDS011;871;47.034;15.394;2022-10-16T04:11:43;174.53;;;49.87;;
1747;SDS011;871;47.034;15.394;2022-10-16T04:14:09;254.80;;;51.80;;
1747;SDS011;871;47.034;15.394;2022-10-16T04:16:35;158.93;;;48.60;;
1747;SDS011;871;47.034;15.394;2022-10-16T04:19:02;278.90;;;52.53;;
1747;SDS011;871;47.034;15.394;2022-10-16T04:21:28;221.60;;;51.00;;
1747;SDS011;871;47.034;15.394;2022-10-16T04:23:54;178.23;;;46.80;;
1747;SDS011;871;47.034;15.394;2022-10-16T04:26:20;253.17;;;49.63;;
1747;SDS011;871;47.034;15.394;2022-10-16T04:28:46;167.10;;;45.90;;
1747;SDS011;871;47.034;15.394;2022-10-16T04:31:12;193.90;;;47.87;;
1747;SDS011;871;47.034;15.394;2022-10-16T04:33:38;187.43;;;47.67;;
1747;SDS011;871;47.034;15.394;2022-10-16T04:36:04;144.20;;;45.27;;
1747;SDS011;871;47.034;15.394;2022-10-16T04:38:30;134.03;;;42.50;;
1747;SDS011;871;47.034;15.394;2022-10-16T04:40:56;186.70;;;48.33;;
1747;SDS011;871;47.034;15.394;2022-10-16T04:43:23;189.90;;;47.70;;
1747;SDS011;871;47.034;15.394;2022-10-16T04:45:49;148.27;;;44.80;;
1747;SDS011;871;47.034;15.394;2022-10-16T04:48:19;152.77;;;45.80;;
1747;SDS011;871;47.034;15.394;2022-10-16T04:50:45;158.17;;;45.07;;
1747;SDS011;871;47.034;15.394;2022-10-16T04:53:11;141.67;;;40.10;;
1747;SDS011;871;47.034;15.394;2022-10-16T04:55:37;164.87;;;45.83;;
1747;SDS011;871;47.034;15.394;2022-10-16T04:58:03;226.67;;;49.20;;
1747;SDS011;871;47.034;15.394;2022-10-16T05:00:30;255.63;;;52.00;;
1747;SDS011;871;47.034;15.394;2022-10-16T05:02:56;299.33;;;55.50;;
1747;SDS011;871;47.034;15.394;2022-10-16T05:05:24;265.20;;;54.50;;
1747;SDS011;871;47.034;15.394;2022-10-16T05:07:50;164.27;;;52.07;;
1747;SDS011;871;47.034;15.394;2022-10-16T05:10:16;213.17;;;51.63;;
1747;SDS011;871;47.034;15.394;2022-10-16T05:12:43;298.33;;;60.33;;
1747;SDS011;871;47.034;15.394;2022-10-16T05:15:09;229.03;;;49.67;;
1747;SDS011;871;47.034;15.394;2022-10-16T05:17:35;272.13;;;53.30;;
1747;SDS011;871;47.034;15.394;2022-10-16T05:20:01;271.07;;;52.50;;
1747;SDS011;871;47.034;15.394;2022-10-16T05:22:28;267.27;;;48.03;;
1747;SDS011;871;47.034;15.394;2022-10-16T05:24:54;151.73;;;46.23;;
1747;SDS011;871;47.034;15.394;2022-10-16T05:27:20;235.43;;;49.87;;
1747;SDS011;871;47.034;15.394;2022-10-16T05:29:46;205.83;;;46.70;;
1747;SDS011;871;47.034;15.394;2022-10-16T05:32:13;226.00;;;47.20;;
1747;SDS011;871;47.034;15.394;2022-10-16T05:34:39;272.33;;;50.37;;
1747;SDS011;871;47.034;15.394;2022-10-16T05:37:05;161.40;;;45.07;;
1747;SDS011;871;47.034;15.394;2022-10-16T05:39:31;188.73;;;45.07;;
1747;SDS011;871;47.034;15.394;2022-10-16T05:41:57;117.77;;;40.87;;
1747;SDS011;871;47.034;15.394;2022-10-16T05:44:24;197.47;;;46.10;;
1747;SDS011;871;47.034;15.394;2022-10-16T05:46:50;213.10;;;42.60;;
1747;SDS011;871;47.034;15.394;2022-10-16T05:49:16;194.40;;;49.93;;
1747;SDS011;871;47.034;15.394;2022-10-16T05:51:42;202.33;;;48.90;;
1747;SDS011;871;47.034;15.394;2022-10-16T05:54:08;221.27;;;50.67;;
1747;SDS011;871;47.034;15.394;2022-10-16T05:56:34;229.93;;;52.93;;
1747;SDS011;871;47.034;15.394;2022-10-16T05:59:00;205.50;;;49.33;;
1747;SDS011;871;47.034;15.394;2022-10-16T06:01:26;157.43;;;46.13;;
1747;SDS011;871;47.034;15.394;2022-10-16T06:03:52;176.50;;;45.30;;
1747;SDS011;871;47.034;15.394;2022-10-16T06:06:19;158.13;;;43.23;;
1747;SDS011;871;47.034;15.394;2022-10-16T06:08:46;129.10;;;41.60;;
1747;SDS011;871;47.034;15.394;2022-10-16T06:11:14;171.70;;;46.90;;
1747;SDS011;871;47.034;15.394;2022-10-16T06:13:40;184.70;;;45.60;;
1747;SDS011;871;47.034;15.394;2022-10-16T06:16:07;137.00;;;41.60;;
1747;SDS011;871;47.034;15.394;2022-10-16T06:18:34;138.47;;;41.90;;
1747;SDS011;871;47.034;15.394;2022-10-16T06:21:06;117.60;;;38.40;;
1747;SDS011;871;47.034;15.394;2022-10-16T06:23:32;128.47;;;44.33;;
1747;SDS011;871;47.034;15.394;2022-10-16T06:26:11;128.53;;;40.40;;
1747;SDS011;871;47.034;15.394;2022-10-16T06:28:38;127.37;;;39.83;;
1747;SDS011;871;47.034;15.394;2022-10-16T06:31:05;142.77;;;39.03;;
1747;SDS011;871;47.034;15.394;2022-10-16T06:33:31;111.60;;;36.90;;
1747;SDS011;871;47.034;15.394;2022-10-16T06:36:10;109.33;;;38.13;;
1747;SDS011;871;47.034;15.394;2022-10-16T06:38:36;128.97;;;38.73;;
1747;SDS011;871;47.034;15.394;2022-10-16T06:41:03;151.03;;;39.77;;
1747;SDS011;871;47.034;15.394;2022-10-16T06:43:29;146.97;;;38.67;;
1747;SDS011;871;47.034;15.394;2022-10-16T06:46:02;121.67;;;37.90;;
1747;SDS011;871;47.034;15.394;2022-10-16T06:48:30;118.37;;;39.20;;
1747;SDS011;871;47.034;15.394;2022-10-16T06:50:57;130.23;;;42.90;;
1747;SDS011;871;47.034;15.394;2022-10-16T06:53:23;134.93;;;42.73;;
1747;SDS011;871;47.034;15.394;2022-10-16T06:55:49;125.87;;;42.30;;
1747;SDS011;871;47.034;15.394;2022-10-16T06:58:15;119.43;;;39.87;;
1747;SDS011;871;47.034;15.394;2022-10-16T07:00:41;120.23;;;39.67;;
1747;SDS011;871;47.034;15.394;2022-10-16T07:03:07;125.50;;;43.23;;
1747;SDS011;871;47.034;15.394;2022-10-16T07:05:37;125.93;;;42.67;;
1747;SDS011;871;47.034;15.394;2022-10-16T07:08:03;129.00;;;40.97;;
1747;SDS011;871;47.034;15.394;2022-10-16T07:10:30;106.77;;;40.17;;
1747;SDS011;871;47.034;15.394;2022-10-16T07:12:56;132.70;;;38.17;;
1747;SDS011;871;47.034;15.394;2022-10-16T07:15:22;126.23;;;39.47;;
1747;SDS011;871;47.034;15.394;2022-10-16T07:17:49;165.57;;;42.07;;
1747;SDS011;871;47.034;15.394;2022-10-16T07:20:15;142.63;;;42.27;;
1747;SDS011;871;47.034;15.394;2022-10-16T07:22:41;106.47;;;38.07;;
1747;SDS011;871;47.034;15.394;2022-10-16T07:25:07;110.83;;;38.07;;
1747;SDS011;871;47.034;15.394;2022-10-16T07:27:34;110.23;;;40.43;;
1747;SDS011;871;47.034;15.394;2022-10-16T07:30:00;105.03;;;41.50;;
1747;SDS011;871;47.034;15.394;2022-10-16T07:32:26;112.07;;;41.37;;
1747;SDS011;871;47.034;15.394;2022-10-16T07:34:52;110.37;;;41.73;;
1747;SDS011;871;47.034;15.394;2022-10-16T07:37:18;108.37;;;36.97;;
1747;SDS011;871;47.034;15.394;2022-10-16T07:39:44;118.03;;;38.60;;
1747;SDS011;871;47.034;15.394;2022-10-16T07:42:10;98.13;;;39.67;;
1747;SDS011;871;47.034;15.394;2022-10-16T07:44:37;102.93;;;39.20;;
1747;SDS011;871;47.034;15.394;2022-10-16T07:47:03;114.47;;;39.30;;
1747;SDS011;871;47.034;15.394;2022-10-16T07:49:29;102.73;;;39.67;;
1747;SDS011;871;47.034;15.394;2022-10-16T07:51:55;92.60;;;35.87;;
1747;SDS011;871;47.034;15.394;2022-10-16T07:54:21;94.33;;;35.47;;
1747;SDS011;871;47.034;15.394;2022-10-16T07:56:47;102.10;;;37.90;;
1747;SDS011;871;47.034;15.394;2022-10-16T07:59:13;104.83;;;41.77;;
1747;SDS011;871;47.034;15.394;2022-10-16T08:01:39;106.40;;;41.53;;
1747;SDS011;871;47.034;15.394;2022-10-16T08:04:07;98.10;;;36.53;;
1747;SDS011;871;47.034;15.394;2022-10-16T08:06:38;93.07;;;36.53;;
1747;SDS011;871;47.034;15.394;2022-10-16T08:09:04;91.63;;;36.03;;
1747;SDS011;871;47.034;15.394;2022-10-16T08:11:30;90.27;;;35.43;;
1747;SDS011;871;47.034;15.394;2022-10-16T08:13:56;91.03;;;36.67;;
1747;SDS011;871;47.034;15.394;2022-10-16T08:16:22;88.57;;;34.90;;
1747;SDS011;871;47.034;15.394;2022-10-16T08:18:48;92.37;;;32.70;;
1747;SDS011;871;47.034;15.394;2022-10-16T08:22:53;91.57;;;37.60;;
1747;SDS011;871;47.034;15.394;2022-10-16T08:25:21;86.17;;;33.93;;
1747;SDS011;871;47.034;15.394;2022-10-16T08:27:47;79.33;;;30.83;;
1747;SDS011;871;47.034;15.394;2022-10-16T08:30:13;84.67;;;32.27;;
1747;SDS011;871;47.034;15.394;2022-10-16T08:32:41;84.30;;;32.80;;
1747;SDS011;871;47.034;15.394;2022-10-16T08:35:10;89.83;;;32.77;;
1747;SDS011;871;47.034;15.394;2022-10-16T08:37:37;80.90;;;29.93;;
1747;SDS011;871;47.034;15.394;2022-10-16T08:40:04;77.80;;;29.80;;
1747;SDS011;871;47.034;15.394;2022-10-16T08:47:49;81.87;;;30.50;;
1747;SDS011;871;47.034;15.394;2022-10-16T08:50:24;73.27;;;29.20;;
1747;SDS011;871;47.034;15.394;2022-10-16T08:52:52;77.57;;;29.20;;
1747;SDS011;871;47.034;15.394;2022-10-16T08:57:53;76.87;;;27.83;;
1747;SDS011;871;47.034;15.394;2022-10-16T09:00:20;74.97;;;27.03;;
1747;SDS011;871;47.034;15.394;2022-10-16T09:02:59;76.73;;;28.20;;
1747;SDS011;871;47.034;15.394;2022-10-16T09:08:28;81.03;;;30.50;;
1747;SDS011;871;47.034;15.394;2022-10-16T09:10:59;76.57;;;28.40;;
1747;SDS011;871;47.034;15.394;2022-10-16T09:13:34;74.00;;;26.43;;
1747;SDS011;871;47.034;15.394;2022-10-16T09:18:37;77.20;;;27.40;;
1747;SDS011;871;47.034;15.394;2022-10-16T09:21:09;74.17;;;27.33;;
1747;SDS011;871;47.034;15.394;2022-10-16T09:23:39;70.07;;;24.13;;
1747;SDS011;871;47.034;15.394;2022-10-16T09:26:06;71.23;;;24.23;;
1747;SDS011;871;47.034;15.394;2022-10-16T09:28:35;74.53;;;24.37;;
1747;SDS011;871;47.034;15.394;2022-10-16T09:31:01;71.40;;;24.87;;
1747;SDS011;871;47.034;15.394;2022-10-16T09:33:33;70.20;;;24.13;;
1747;SDS011;871;47.034;15.394;2022-10-16T09:36:01;69.50;;;22.30;;
1747;SDS011;871;47.034;15.394;2022-10-16T09:38:30;73.17;;;24.20;;
1747;SDS011;871;47.034;15.394;2022-10-16T09:40:57;69.37;;;23.07;;
1747;SDS011;871;47.034;15.394;2022-10-16T09:45:57;70.47;;;23.60;;
1747;SDS011;871;47.034;15.394;2022-10-16T09:48:25;70.27;;;24.13;;
1747;SDS011;871;47.034;15.394;2022-10-16T09:50:55;70.00;;;23.63;;
1747;SDS011;871;47.034;15.394;2022-10-16T09:53:21;67.47;;;23.60;;
1747;SDS011;871;47.034;15.394;2022-10-16T09:55:51;67.93;;;23.80;;
1747;SDS011;871;47.034;15.394;2022-10-16T09:58:17;67.50;;;23.47;;
1747;SDS011;871;47.034;15.394;2022-10-16T10:00:50;65.83;;;20.63;;
1747;SDS011;871;47.034;15.394;2022-10-16T10:03:33;69.50;;;23.60;;
1747;SDS011;871;47.034;15.394;2022-10-16T10:06:06;68.63;;;21.20;;
1747;SDS011;871;47.034;15.394;2022-10-16T10:08:33;66.57;;;21.93;;
1747;SDS011;871;47.034;15.394;2022-10-16T10:10:59;65.90;;;21.13;;
1747;SDS011;871;47.034;15.394;2022-10-16T10:13:25;65.77;;;22.50;;
1747;SDS011;871;47.034;15.394;2022-10-16T10:15:52;64.80;;;21.50;;
1747;SDS011;871;47.034;15.394;2022-10-16T10:18:19;61.23;;;19.23;;
1747;SDS011;871;47.034;15.394;2022-10-16T10:20:57;66.00;;;19.77;;
1747;SDS011;871;47.034;15.394;2022-10-16T10:23:25;63.57;;;18.90;;
1747;SDS011;871;47.034;15.394;2022-10-16T10:26:08;62.60;;;19.20;;
1747;SDS011;871;47.034;15.394;2022-10-16T10:28:45;63.93;;;19.67;;
1747;SDS011;871;47.034;15.394;2022-10-16T10:33:58;61.63;;;19.43;;
1747;SDS011;871;47.034;15.394;2022-10-16T10:52:22;60.07;;;19.13;;
1747;SDS011;871;47.034;15.394;2022-10-16T10:57:29;59.50;;;17.67;;
1747;SDS011;871;47.034;15.394;2022-10-16T11:00:17;62.73;;;18.70;;
1747;SDS011;871;47.034;15.394;2022-10-16T11:02:52;60.50;;;18.27;;
1747;SDS011;871;47.034;15.394;2022-10-16T11:07:57;63.60;;;18.73;;
1747;SDS011;871;47.034;15.394;2022-10-16T11:10:33;58.20;;;16.70;;
1747;SDS011;871;47.034;15.394;2022-10-16T11:15:48;56.40;;;16.87;;
1747;SDS011;871;47.034;15.394;2022-10-16T11:18:17;56.47;;;15.53;;
1747;SDS011;871;47.034;15.394;2022-10-16T11:20:47;57.30;;;16.47;;
1747;SDS011;871;47.034;15.394;2022-10-16T11:23:16;58.20;;;17.07;;
1747;SDS011;871;47.034;15.394;2022-10-16T11:25:44;64.70;;;19.50;;
1747;SDS011;871;47.034;15.394;2022-10-16T11:30:47;57.70;;;15.60;;
1747;SDS011;871;47.034;15.394;2022-10-16T11:41:04;56.93;;;16.73;;
1747;SDS011;871;47.034;15.394;2022-10-16T11:43:40;62.57;;;16.70;;
1747;SDS011;871;47.034;15.394;2022-10-16T11:46:10;58.13;;;16.73;;
1747;SDS011;871;47.034;15.394;2022-10-16T11:48:39;58.40;;;17.00;;
1747;SDS011;871;47.034;15.394;2022-10-16T11:54:02;57.70;;;15.97;;
1747;SDS011;871;47.034;15.394;2022-10-16T11:56:30;56.20;;;16.17;;
1747;SDS011;871;47.034;15.394;2022-10-16T11:59:32;58.30;;;16.17;;
1747;SDS011;871;47.034;15.394;2022-10-16T12:02:17;59.67;;;16.07;;
1747;SDS011;871;47.034;15.394;2022-10-16T12:04:41;57.40;;;16.33;;
1747;SDS011;871;47.034;15.394;2022-10-16T12:07:11;57.90;;;17.70;;
1747;SDS011;871;47.034;15.394;2022-10-16T12:09:40;59.97;;;17.37;;
1747;SDS011;871;47.034;15.394;2022-10-16T12:15:01;58.10;;;15.97;;
1747;SDS011;871;47.034;15.394;2022-10-16T12:17:38;57.43;;;15.30;;
1747;SDS011;871;47.034;15.394;2022-10-16T12:20:25;56.97;;;16.00;;
1747;SDS011;871;47.034;15.394;2022-10-16T12:27:52;60.50;;;15.87;;
1747;SDS011;871;47.034;15.394;2022-10-16T12:30:22;52.37;;;13.93;;
1747;SDS011;871;47.034;15.394;2022-10-16T12:32:56;54.20;;;14.60;;
1747;SDS011;871;47.034;15.394;2022-10-16T12:35:27;55.27;;;14.10;;
1747;SDS011;871;47.034;15.394;2022-10-16T12:37:54;53.47;;;14.07;;
1747;SDS011;871;47.034;15.394;2022-10-16T12:40:31;53.30;;;13.93;;
1747;SDS011;871;47.034;15.394;2022-10-16T12:42:58;55.77;;;14.83;;
1747;SDS011;871;47.034;15.394;2022-10-16T12:45:32;52.93;;;13.47;;
1747;SDS011;871;47.034;15.394;2022-10-16T12:48:02;54.90;;;15.07;;
1747;SDS011;871;47.034;15.394;2022-10-16T12:50:36;55.60;;;14.70;;
1747;SDS011;871;47.034;15.394;2022-10-16T12:53:03;57.00;;;14.83;;
1747;SDS011;871;47.034;15.394;2022-10-16T12:55:42;55.13;;;14.20;;
1747;SDS011;871;47.034;15.394;2022-10-16T13:00:57;54.67;;;14.17;;
1747;SDS011;871;47.034;15.394;2022-10-16T13:26:43;54.60;;;14.27;;
1747;SDS011;871;47.034;15.394;2022-10-16T13:29:12;57.60;;;17.20;;
1747;SDS011;871;47.034;15.394;2022-10-16T13:31:38;59.83;;;16.10;;
1747;SDS011;871;47.034;15.394;2022-10-16T13:34:05;57.17;;;16.27;;
1747;SDS011;871;47.034;15.394;2022-10-16T13:36:42;57.03;;;15.70;;
1747;SDS011;871;47.034;15.394;2022-10-16T13:39:12;54.10;;;15.53;;
1747;SDS011;871;47.034;15.394;2022-10-16T13:41:39;57.10;;;16.67;;
1747;SDS011;871;47.034;15.394;2022-10-16T13:44:05;57.53;;;15.30;;
1747;SDS011;871;47.034;15.394;2022-10-16T13:46:38;55.40;;;14.80;;
1747;SDS011;871;47.034;15.394;2022-10-16T13:49:05;54.20;;;14.87;;
1747;SDS011;871;47.034;15.394;2022-10-16T13:51:37;61.00;;;16.40;;
1747;SDS011;871;47.034;15.394;2022-10-16T13:54:03;54.57;;;14.87;;
1747;SDS011;871;47.034;15.394;2022-10-16T13:56:30;56.90;;;16.47;;
1747;SDS011;871;47.034;15.394;2022-10-16T13:59:00;54.20;;;14.00;;
1747;SDS011;871;47.034;15.394;2022-10-16T14:01:30;57.93;;;15.90;;
1747;SDS011;871;47.034;15.394;2022-10-16T14:04:01;60.77;;;15.93;;
1747;SDS011;871;47.034;15.394;2022-10-16T14:06:28;55.30;;;15.33;;
1747;SDS011;871;47.034;15.394;2022-10-16T14:11:21;54.07;;;14.40;;
1747;SDS011;871;47.034;15.394;2022-10-16T14:13:48;56.50;;;15.67;;
1747;SDS011;871;47.034;15.394;2022-10-16T14:16:16;59.70;;;16.57;;
1747;SDS011;871;47.034;15.394;2022-10-16T14:18:44;59.00;;;15.60;;
1747;SDS011;871;47.034;15.394;2022-10-16T14:21:12;54.53;;;14.03;;
1747;SDS011;871;47.034;15.394;2022-10-16T14:23:39;55.60;;;14.60;;
1747;SDS011;871;47.034;15.394;2022-10-16T14:26:16;56.37;;;16.37;;
1747;SDS011;871;47.034;15.394;2022-10-16T14:28:43;54.87;;;15.17;;
1747;SDS011;871;47.034;15.394;2022-10-16T14:31:31;56.70;;;15.13;;
1747;SDS011;871;47.034;15.394;2022-10-16T14:33:55;54.33;;;14.10;;
1747;SDS011;871;47.034;15.394;2022-10-16T14:36:23;54.20;;;14.23;;
1747;SDS011;871;47.034;15.394;2022-10-16T14:39:04;56.70;;;14.97;;
1747;SDS011;871;47.034;15.394;2022-10-16T14:41:41;55.67;;;14.40;;
1747;SDS011;871;47.034;15.394;2022-10-16T14:44:09;59.20;;;15.53;;
1747;SDS011;871;47.034;15.394;2022-10-16T14:46:37;56.67;;;15.60;;
1747;SDS011;871;47.034;15.394;2022-10-16T14:49:04;57.67;;;15.60;;
1747;SDS011;871;47.034;15.394;2022-10-16T14:51:39;58.00;;;17.00;;
1747;SDS011;871;47.034;15.394;2022-10-16T14:54:07;62.37;;;19.97;;
1747;SDS011;871;47.034;15.394;2022-10-16T15:01:56;61.90;;;20.60;;
1747;SDS011;871;47.034;15.394;2022-10-16T15:04:22;63.50;;;20.70;;
1747;SDS011;871;47.034;15.394;2022-10-16T15:06:48;64.13;;;21.47;;
1747;SDS011;871;47.034;15.394;2022-10-16T15:09:15;64.50;;;21.43;;
1747;SDS011;871;47.034;15.394;2022-10-16T15:11:41;64.00;;;19.77;;
1747;SDS011;871;47.034;15.394;2022-10-16T15:14:13;62.40;;;19.73;;
1747;SDS011;871;47.034;15.394;2022-10-16T15:16:39;60.13;;;19.13;;
1747;SDS011;871;47.034;15.394;2022-10-16T15:19:07;60.60;;;19.00;;
1747;SDS011;871;47.034;15.394;2022-10-16T15:21:34;62.70;;;20.67;;
1747;SDS011;871;47.034;15.394;2022-10-16T15:24:01;62.37;;;20.93;;
1747;SDS011;871;47.034;15.394;2022-10-16T15:26:28;62.53;;;20.63;;
1747;SDS011;871;47.034;15.394;2022-10-16T15:28:55;61.70;;;18.33;;
1747;SDS011;871;47.034;15.394;2022-10-16T15:31:27;64.13;;;22.77;;
1747;SDS011;871;47.034;15.394;2022-10-16T15:33:53;63.60;;;21.17;;
1747;SDS011;871;47.034;15.394;2022-10-16T15:36:29;66.30;;;22.27;;
1747;SDS011;871;47.034;15.394;2022-10-16T15:38:55;62.00;;;20.50;;
1747;SDS011;871;47.034;15.394;2022-10-16T15:41:22;62.80;;;21.20;;
1747;SDS011;871;47.034;15.394;2022-10-16T15:43:48;59.40;;;19.70;;
1747;SDS011;871;47.034;15.394;2022-10-16T15:46:15;71.60;;;22.33;;
1747;SDS011;871;47.034;15.394;2022-10-16T15:48:42;68.37;;;22.50;;
1747;SDS011;871;47.034;15.394;2022-10-16T15:51:09;64.10;;;21.90;;
1747;SDS011;871;47.034;15.394;2022-10-16T15:53:35;74.93;;;24.40;;
1747;SDS011;871;47.034;15.394;2022-10-16T15:56:02;70.87;;;25.10;;
1747;SDS011;871;47.034;15.394;2022-10-16T15:58:29;67.93;;;22.70;;
1747;SDS011;871;47.034;15.394;2022-10-16T16:00:55;70.87;;;24.90;;
1747;SDS011;871;47.034;15.394;2022-10-16T16:03:22;78.13;;;24.50;;
1747;SDS011;871;47.034;15.394;2022-10-16T16:05:48;68.17;;;23.83;;
1747;SDS011;871;47.034;15.394;2022-10-16T16:08:14;71.70;;;23.37;;
1747;SDS011;871;47.034;15.394;2022-10-16T16:10:41;72.67;;;22.43;;
1747;SDS011;871;47.034;15.394;2022-10-16T16:13:09;78.30;;;23.97;;
1747;SDS011;871;47.034;15.394;2022-10-16T16:15:37;75.67;;;25.90;;
1747;SDS011;871;47.034;15.394;2022-10-16T16:18:04;71.30;;;24.00;;
1747;SDS011;871;47.034;15.394;2022-10-16T16:20:31;67.67;;;24.63;;
1747;SDS011;871;47.034;15.394;2022-10-16T16:22:57;76.30;;;25.73;;
1747;SDS011;871;47.034;15.394;2022-10-16T16:25:23;70.90;;;24.13;;
1747;SDS011;871;47.034;15.394;2022-10-16T16:27:49;72.43;;;23.73;;
1747;SDS011;871;47.034;15.394;2022-10-16T16:30:15;73.07;;;25.30;;
1747;SDS011;871;47.034;15.394;2022-10-16T16:32:46;71.93;;;23.50;;
1747;SDS011;871;47.034;15.394;2022-10-16T16:35:12;72.17;;;24.40;;
1747;SDS011;871;47.034;15.394;2022-10-16T16:37:38;71.30;;;25.90;;
1747;SDS011;871;47.034;15.394;2022-10-16T16:40:04;73.33;;;24.60;;
1747;SDS011;871;47.034;15.394;2022-10-16T16:42:30;72.70;;;25.00;;